Madden, Mississippi
Current Conditions -  °F | °C
As of 10:58 PM on Tuesday 25 Nov 2014 (Local Time) from KMEI Reporting Station
Clear Clear  
Wind Chill: 38°   Ceiling: Unl
Heat Index: 38°   Visibility: 10mi
Dew Point: 29°   Wind: 3mph
Humidity: 70%   Direction: 300°WNW
Pressure: 30.18"   Gusts: NA
Location:  32.68°N, 89.35°W
Report Text: KMEI 260458Z AUTO 30003KT 10SM CLR 03/M02 A3018 RMK AO2 SLP220 T00331017
Loading
Personal Weather Stations






























Interactive Weather Map New forecast layout! Learn more

10-Day Weather Forecast

Advertisements
Track Severe Weather on mobile